sensor_id;sensor_type;location;lat;lon;timestamp;temperature;humidity
9975;DHT22;5028;50.974;4.968;2023-07-20T00:00:56;15.90;99.90
9975;DHT22;5028;50.974;4.968;2023-07-20T00:03:24;15.90;99.90
9975;DHT22;5028;50.974;4.968;2023-07-20T00:05:53;15.80;99.90
9975;DHT22;5028;50.974;4.968;2023-07-20T00:08:22;15.80;99.90
9975;DHT22;5028;50.974;4.968;2023-07-20T00:10:52;15.80;99.90
9975;DHT22;5028;50.974;4.968;2023-07-20T00:13:21;15.70;99.90
9975;DHT22;5028;50.974;4.968;2023-07-20T00:15:50;15.70;99.90
9975;DHT22;5028;50.974;4.968;2023-07-20T00:18:19;15.70;99.90
9975;DHT22;5028;50.974;4.968;2023-07-20T00:20:48;15.70;99.90
9975;DHT22;5028;50.974;4.968;2023-07-20T00:23:18;15.70;99.90
9975;DHT22;5028;50.974;4.968;2023-07-20T00:25:50;15.70;99.90
9975;DHT22;5028;50.974;4.968;2023-07-20T00:28:20;15.70;99.90
9975;DHT22;5028;50.974;4.968;2023-07-20T00:30:49;15.70;99.90
9975;DHT22;5028;50.974;4.968;2023-07-20T00:33:18;15.60;99.90
9975;DHT22;5028;50.974;4.968;2023-07-20T00:35:46;15.60;99.90
9975;DHT22;5028;50.974;4.968;2023-07-20T00:38:15;15.60;99.90
9975;DHT22;5028;50.974;4.968;2023-07-20T00:40:44;15.60;99.90
9975;DHT22;5028;50.974;4.968;2023-07-20T00:43:13;15.60;99.90
9975;DHT22;5028;50.974;4.968;2023-07-20T00:45:44;15.60;99.90
9975;DHT22;5028;50.974;4.968;2023-07-20T00:48:14;15.60;99.90
9975;DHT22;5028;50.974;4.968;2023-07-20T00:50:43;15.60;99.90
9975;DHT22;5028;50.974;4.968;2023-07-20T00:53:12;15.60;99.90
9975;DHT22;5028;50.974;4.968;2023-07-20T00:55:42;15.60;99.90
9975;DHT22;5028;50.974;4.968;2023-07-20T00:58:11;15.60;99.90
9975;DHT22;5028;50.974;4.968;2023-07-20T01:00:39;15.60;99.90
9975;DHT22;5028;50.974;4.968;2023-07-20T01:03:10;15.60;99.90
9975;DHT22;5028;50.974;4.968;2023-07-20T01:05:42;15.60;99.90
9975;DHT22;5028;50.974;4.968;2023-07-20T01:08:20;15.60;99.90
9975;DHT22;5028;50.974;4.968;2023-07-20T01:10:59;15.60;99.90
9975;DHT22;5028;50.974;4.968;2023-07-20T01:13:31;15.60;99.90
9975;DHT22;5028;50.974;4.968;2023-07-20T01:16:01;15.70;99.90
9975;DHT22;5028;50.974;4.968;2023-07-20T01:18:31;15.60;99.90
9975;DHT22;5028;50.974;4.968;2023-07-20T01:21:06;15.70;99.90
9975;DHT22;5028;50.974;4.968;2023-07-20T01:24:05;15.70;99.90
9975;DHT22;5028;50.974;4.968;2023-07-20T01:27:00;15.70;99.90
9975;DHT22;5028;50.974;4.968;2023-07-20T01:29:42;15.70;99.90
9975;DHT22;5028;50.974;4.968;2023-07-20T01:32:15;15.70;99.90
9975;DHT22;5028;50.974;4.968;2023-07-20T01:34:47;15.70;99.90
9975;DHT22;5028;50.974;4.968;2023-07-20T01:37:18;15.60;99.90
9975;DHT22;5028;50.974;4.968;2023-07-20T01:39:48;15.70;99.90
9975;DHT22;5028;50.974;4.968;2023-07-20T01:42:17;15.70;99.90
9975;DHT22;5028;50.974;4.968;2023-07-20T01:44:46;15.70;99.90
9975;DHT22;5028;50.974;4.968;2023-07-20T01:47:16;15.70;99.90
9975;DHT22;5028;50.974;4.968;2023-07-20T01:49:45;15.60;99.90
9975;DHT22;5028;50.974;4.968;2023-07-20T01:52:14;15.60;99.90
9975;DHT22;5028;50.974;4.968;2023-07-20T01:54:42;15.60;99.90
9975;DHT22;5028;50.974;4.968;2023-07-20T01:57:13;15.60;99.90
9975;DHT22;5028;50.974;4.968;2023-07-20T01:59:42;15.60;99.90
9975;DHT22;5028;50.974;4.968;2023-07-20T02:02:10;15.60;99.90
9975;DHT22;5028;50.974;4.968;2023-07-20T02:04:41;15.50;99.90
9975;DHT22;5028;50.974;4.968;2023-07-20T02:07:10;15.50;99.90
9975;DHT22;5028;50.974;4.968;2023-07-20T02:09:38;15.50;99.90
9975;DHT22;5028;50.974;4.968;2023-07-20T02:12:08;15.50;99.90
9975;DHT22;5028;50.974;4.968;2023-07-20T02:14:37;15.50;99.90
9975;DHT22;5028;50.974;4.968;2023-07-20T02:17:06;15.50;99.90
9975;DHT22;5028;50.974;4.968;2023-07-20T02:19:38;15.50;99.90
9975;DHT22;5028;50.974;4.968;2023-07-20T02:22:08;15.50;99.90
9975;DHT22;5028;50.974;4.968;2023-07-20T02:24:37;15.40;99.90
9975;DHT22;5028;50.974;4.968;2023-07-20T02:27:06;15.40;99.90
9975;DHT22;5028;50.974;4.968;2023-07-20T02:29:34;15.40;99.90
9975;DHT22;5028;50.974;4.968;2023-07-20T02:32:04;15.40;99.90
9975;DHT22;5028;50.974;4.968;2023-07-20T02:34:33;15.40;99.90
9975;DHT22;5028;50.974;4.968;2023-07-20T02:37:01;15.30;99.90
9975;DHT22;5028;50.974;4.968;2023-07-20T02:39:32;15.30;99.90
9975;DHT22;5028;50.974;4.968;2023-07-20T02:42:01;15.30;99.90
9975;DHT22;5028;50.974;4.968;2023-07-20T02:44:29;15.30;99.90
9975;DHT22;5028;50.974;4.968;2023-07-20T02:46:58;15.30;99.90
9975;DHT22;5028;50.974;4.968;2023-07-20T02:49:27;15.20;99.90
9975;DHT22;5028;50.974;4.968;2023-07-20T02:51:56;15.20;99.90
9975;DHT22;5028;50.974;4.968;2023-07-20T02:54:25;15.20;99.90
9975;DHT22;5028;50.974;4.968;2023-07-20T02:56:56;15.20;99.90
9975;DHT22;5028;50.974;4.968;2023-07-20T02:59:24;15.20;99.90
9975;DHT22;5028;50.974;4.968;2023-07-20T03:01:53;15.20;99.90
9975;DHT22;5028;50.974;4.968;2023-07-20T03:04:22;15.10;99.90
9975;DHT22;5028;50.974;4.968;2023-07-20T03:06:52;15.10;99.90
9975;DHT22;5028;50.974;4.968;2023-07-20T03:09:21;15.10;99.90
9975;DHT22;5028;50.974;4.968;2023-07-20T03:11:49;15.10;99.90
9975;DHT22;5028;50.974;4.968;2023-07-20T03:14:20;15.00;99.90
9975;DHT22;5028;50.974;4.968;2023-07-20T03:16:50;15.00;99.90
9975;DHT22;5028;50.974;4.968;2023-07-20T03:19:18;15.00;99.90
9975;DHT22;5028;50.974;4.968;2023-07-20T03:21:47;15.00;99.90
9975;DHT22;5028;50.974;4.968;2023-07-20T03:24:16;14.90;99.90
9975;DHT22;5028;50.974;4.968;2023-07-20T03:26:45;14.90;99.90
9975;DHT22;5028;50.974;4.968;2023-07-20T03:29:14;14.90;99.90
9975;DHT22;5028;50.974;4.968;2023-07-20T03:31:44;14.90;99.90
9975;DHT22;5028;50.974;4.968;2023-07-20T03:34:13;14.80;99.90
9975;DHT22;5028;50.974;4.968;2023-07-20T03:36:42;14.80;99.90
9975;DHT22;5028;50.974;4.968;2023-07-20T03:39:11;14.80;99.90
9975;DHT22;5028;50.974;4.968;2023-07-20T03:41:40;14.80;99.90
9975;DHT22;5028;50.974;4.968;2023-07-20T03:44:09;14.80;99.90
9975;DHT22;5028;50.974;4.968;2023-07-20T03:46:38;14.80;99.90
9975;DHT22;5028;50.974;4.968;2023-07-20T03:49:08;14.80;99.90
9975;DHT22;5028;50.974;4.968;2023-07-20T03:51:37;14.80;99.90
9975;DHT22;5028;50.974;4.968;2023-07-20T03:54:05;14.80;99.90
9975;DHT22;5028;50.974;4.968;2023-07-20T03:56:35;14.80;99.90
9975;DHT22;5028;50.974;4.968;2023-07-20T03:59:04;14.80;99.90
9975;DHT22;5028;50.974;4.968;2023-07-20T04:01:33;14.80;99.90
9975;DHT22;5028;50.974;4.968;2023-07-20T04:04:06;14.80;99.90
9975;DHT22;5028;50.974;4.968;2023-07-20T04:06:37;14.70;99.90
9975;DHT22;5028;50.974;4.968;2023-07-20T04:09:06;14.80;99.90
9975;DHT22;5028;50.974;4.968;2023-07-20T04:11:37;14.80;99.90
9975;DHT22;5028;50.974;4.968;2023-07-20T04:14:07;14.80;99.90
9975;DHT22;5028;50.974;4.968;2023-07-20T04:16:36;14.80;99.90
9975;DHT22;5028;50.974;4.968;2023-07-20T04:19:05;14.80;99.90
9975;DHT22;5028;50.974;4.968;2023-07-20T04:21:41;14.80;99.90
9975;DHT22;5028;50.974;4.968;2023-07-20T04:24:10;14.90;99.90
9975;DHT22;5028;50.974;4.968;2023-07-20T04:26:38;14.90;99.90
9975;DHT22;5028;50.974;4.968;2023-07-20T04:29:07;15.00;99.90
9975;DHT22;5028;50.974;4.968;2023-07-20T04:31:36;14.90;99.90
9975;DHT22;5028;50.974;4.968;2023-07-20T04:34:05;15.00;99.90
9975;DHT22;5028;50.974;4.968;2023-07-20T04:36:34;15.00;99.90
9975;DHT22;5028;50.974;4.968;2023-07-20T04:39:05;15.10;99.90
9975;DHT22;5028;50.974;4.968;2023-07-20T04:41:55;15.10;99.90
9975;DHT22;5028;50.974;4.968;2023-07-20T04:44:24;15.20;99.90
9975;DHT22;5028;50.974;4.968;2023-07-20T04:46:52;15.20;99.90
9975;DHT22;5028;50.974;4.968;2023-07-20T04:49:21;15.20;99.90
9975;DHT22;5028;50.974;4.968;2023-07-20T04:51:50;15.20;99.90
9975;DHT22;5028;50.974;4.968;2023-07-20T04:54:21;15.30;99.90
9975;DHT22;5028;50.974;4.968;2023-07-20T04:56:50;15.30;99.90
9975;DHT22;5028;50.974;4.968;2023-07-20T04:59:18;15.30;99.90
9975;DHT22;5028;50.974;4.968;2023-07-20T05:01:47;15.40;99.90
9975;DHT22;5028;50.974;4.968;2023-07-20T05:04:16;15.50;99.90
9975;DHT22;5028;50.974;4.968;2023-07-20T05:06:45;15.50;99.90
9975;DHT22;5028;50.974;4.968;2023-07-20T05:09:14;15.60;99.90
9975;DHT22;5028;50.974;4.968;2023-07-20T05:11:44;15.60;99.90
9975;DHT22;5028;50.974;4.968;2023-07-20T05:14:14;15.70;99.90
9975;DHT22;5028;50.974;4.968;2023-07-20T05:16:43;15.70;99.90
9975;DHT22;5028;50.974;4.968;2023-07-20T05:19:11;15.80;99.90
9975;DHT22;5028;50.974;4.968;2023-07-20T05:21:41;15.80;99.90
9975;DHT22;5028;50.974;4.968;2023-07-20T05:24:10;15.80;99.90
9975;DHT22;5028;50.974;4.968;2023-07-20T05:26:39;15.90;99.90
9975;DHT22;5028;50.974;4.968;2023-07-20T05:29:09;16.00;99.90
9975;DHT22;5028;50.974;4.968;2023-07-20T05:31:38;16.00;99.90
9975;DHT22;5028;50.974;4.968;2023-07-20T05:34:07;16.00;99.90
9975;DHT22;5028;50.974;4.968;2023-07-20T05:36:36;16.00;99.90
9975;DHT22;5028;50.974;4.968;2023-07-20T05:39:05;16.00;99.90
9975;DHT22;5028;50.974;4.968;2023-07-20T05:41:33;16.00;99.90
9975;DHT22;5028;50.974;4.968;2023-07-20T05:44:03;16.10;99.90
9975;DHT22;5028;50.974;4.968;2023-07-20T05:46:33;16.10;99.90
9975;DHT22;5028;50.974;4.968;2023-07-20T05:49:21;16.20;99.90
9975;DHT22;5028;50.974;4.968;2023-07-20T05:51:49;16.30;99.90
9975;DHT22;5028;50.974;4.968;2023-07-20T05:54:18;16.40;99.90
9975;DHT22;5028;50.974;4.968;2023-07-20T05:56:47;16.50;99.90
9975;DHT22;5028;50.974;4.968;2023-07-20T05:59:16;16.50;99.90
9975;DHT22;5028;50.974;4.968;2023-07-20T06:01:46;16.60;99.90
9975;DHT22;5028;50.974;4.968;2023-07-20T06:04:16;16.60;99.90
9975;DHT22;5028;50.974;4.968;2023-07-20T06:06:45;16.60;99.90
9975;DHT22;5028;50.974;4.968;2023-07-20T06:09:13;16.70;99.90
9975;DHT22;5028;50.974;4.968;2023-07-20T06:11:42;16.70;99.90
9975;DHT22;5028;50.974;4.968;2023-07-20T06:14:10;16.80;99.90
9975;DHT22;5028;50.974;4.968;2023-07-20T06:16:40;16.80;99.90
9975;DHT22;5028;50.974;4.968;2023-07-20T06:19:10;16.70;99.90
9975;DHT22;5028;50.974;4.968;2023-07-20T06:21:39;16.80;99.90
9975;DHT22;5028;50.974;4.968;2023-07-20T06:24:08;16.80;99.90
9975;DHT22;5028;50.974;4.968;2023-07-20T06:26:36;16.80;99.90
9975;DHT22;5028;50.974;4.968;2023-07-20T06:29:07;16.80;99.90
9975;DHT22;5028;50.974;4.968;2023-07-20T06:31:36;16.70;99.90
9975;DHT22;5028;50.974;4.968;2023-07-20T06:34:05;16.80;99.90
9975;DHT22;5028;50.974;4.968;2023-07-20T06:36:35;16.90;99.90
9975;DHT22;5028;50.974;4.968;2023-07-20T06:39:04;16.90;99.90
9975;DHT22;5028;50.974;4.968;2023-07-20T06:41:36;16.90;99.90
9975;DHT22;5028;50.974;4.968;2023-07-20T06:44:08;16.90;99.90
9975;DHT22;5028;50.974;4.968;2023-07-20T06:46:36;17.00;99.90
9975;DHT22;5028;50.974;4.968;2023-07-20T06:49:06;17.00;99.90
9975;DHT22;5028;50.974;4.968;2023-07-20T06:51:40;17.10;99.90
9975;DHT22;5028;50.974;4.968;2023-07-20T06:54:09;17.20;99.90
9975;DHT22;5028;50.974;4.968;2023-07-20T06:56:37;17.30;99.90
9975;DHT22;5028;50.974;4.968;2023-07-20T06:59:12;17.40;99.90
9975;DHT22;5028;50.974;4.968;2023-07-20T07:01:40;17.50;99.90
9975;DHT22;5028;50.974;4.968;2023-07-20T07:04:10;17.50;99.90
9975;DHT22;5028;50.974;4.968;2023-07-20T07:06:40;17.40;99.90
9975;DHT22;5028;50.974;4.968;2023-07-20T07:09:09;17.40;99.90
9975;DHT22;5028;50.974;4.968;2023-07-20T07:11:37;17.40;99.90
9975;DHT22;5028;50.974;4.968;2023-07-20T07:14:06;17.70;99.90
9975;DHT22;5028;50.974;4.968;2023-07-20T07:16:35;17.90;99.90
9975;DHT22;5028;50.974;4.968;2023-07-20T07:19:05;18.10;99.90
9975;DHT22;5028;50.974;4.968;2023-07-20T07:21:35;18.40;99.90
9975;DHT22;5028;50.974;4.968;2023-07-20T07:24:06;18.40;99.90
9975;DHT22;5028;50.974;4.968;2023-07-20T07:26:37;18.50;99.90
9975;DHT22;5028;50.974;4.968;2023-07-20T07:29:08;18.70;99.90
9975;DHT22;5028;50.974;4.968;2023-07-20T07:31:37;18.70;99.90
9975;DHT22;5028;50.974;4.968;2023-07-20T07:34:06;18.90;99.90
9975;DHT22;5028;50.974;4.968;2023-07-20T07:36:35;19.00;99.90
9975;DHT22;5028;50.974;4.968;2023-07-20T07:39:05;19.10;99.90
9975;DHT22;5028;50.974;4.968;2023-07-20T07:41:36;19.10;99.90
9975;DHT22;5028;50.974;4.968;2023-07-20T07:44:05;19.10;99.90
9975;DHT22;5028;50.974;4.968;2023-07-20T07:46:33;19.20;99.90
9975;DHT22;5028;50.974;4.968;2023-07-20T07:49:02;19.10;99.90
9975;DHT22;5028;50.974;4.968;2023-07-20T07:51:31;19.10;99.90
9975;DHT22;5028;50.974;4.968;2023-07-20T07:54:00;19.00;99.90
9975;DHT22;5028;50.974;4.968;2023-07-20T07:56:30;19.00;99.90
9975;DHT22;5028;50.974;4.968;2023-07-20T07:58:59;19.00;99.90
9975;DHT22;5028;50.974;4.968;2023-07-20T08:01:28;19.10;99.90
9975;DHT22;5028;50.974;4.968;2023-07-20T08:03:57;19.10;99.90
9975;DHT22;5028;50.974;4.968;2023-07-20T08:06:28;18.80;99.90
9975;DHT22;5028;50.974;4.968;2023-07-20T08:08:58;18.90;99.90
9975;DHT22;5028;50.974;4.968;2023-07-20T08:11:27;19.30;99.90
9975;DHT22;5028;50.974;4.968;2023-07-20T08:14:00;19.40;99.90
9975;DHT22;5028;50.974;4.968;2023-07-20T08:16:29;19.50;99.90
9975;DHT22;5028;50.974;4.968;2023-07-20T08:18:57;19.60;99.90
9975;DHT22;5028;50.974;4.968;2023-07-20T08:21:26;19.90;99.90
9975;DHT22;5028;50.974;4.968;2023-07-20T08:23:55;20.00;99.90
9975;DHT22;5028;50.974;4.968;2023-07-20T08:26:23;20.10;99.90
9975;DHT22;5028;50.974;4.968;2023-07-20T08:28:54;20.20;99.90
9975;DHT22;5028;50.974;4.968;2023-07-20T08:31:25;20.30;99.90
9975;DHT22;5028;50.974;4.968;2023-07-20T08:33:55;20.60;99.90
9975;DHT22;5028;50.974;4.968;2023-07-20T08:36:24;20.30;99.90
9975;DHT22;5028;50.974;4.968;2023-07-20T08:38:53;20.20;99.90
9975;DHT22;5028;50.974;4.968;2023-07-20T08:41:22;20.00;99.90
9975;DHT22;5028;50.974;4.968;2023-07-20T08:43:51;20.20;99.90
9975;DHT22;5028;50.974;4.968;2023-07-20T08:46:24;20.50;99.90
9975;DHT22;5028;50.974;4.968;2023-07-20T08:48:55;20.70;99.90
9975;DHT22;5028;50.974;4.968;2023-07-20T08:51:25;21.10;99.90
9975;DHT22;5028;50.974;4.968;2023-07-20T08:53:54;21.10;99.90
9975;DHT22;5028;50.974;4.968;2023-07-20T08:56:24;21.10;99.90
9975;DHT22;5028;50.974;4.968;2023-07-20T08:58:54;20.90;99.90
9975;DHT22;5028;50.974;4.968;2023-07-20T09:01:27;21.10;99.90
9975;DHT22;5028;50.974;4.968;2023-07-20T09:03:56;21.20;99.90
9975;DHT22;5028;50.974;4.968;2023-07-20T09:06:26;20.90;99.90
9975;DHT22;5028;50.974;4.968;2023-07-20T09:08:55;20.80;99.90
9975;DHT22;5028;50.974;4.968;2023-07-20T09:11:24;20.60;99.90
9975;DHT22;5028;50.974;4.968;2023-07-20T09:14:03;20.70;99.90
9975;DHT22;5028;50.974;4.968;2023-07-20T09:16:37;21.10;99.90
9975;DHT22;5028;50.974;4.968;2023-07-20T09:19:17;21.80;99.90
9975;DHT22;5028;50.974;4.968;2023-07-20T09:21:50;22.30;99.90
9975;DHT22;5028;50.974;4.968;2023-07-20T09:24:21;22.80;99.90
9975;DHT22;5028;50.974;4.968;2023-07-20T09:26:50;23.30;99.90
9975;DHT22;5028;50.974;4.968;2023-07-20T09:29:20;23.20;99.90
9975;DHT22;5028;50.974;4.968;2023-07-20T09:32:00;22.90;99.90
9975;DHT22;5028;50.974;4.968;2023-07-20T09:34:30;22.60;99.90
9975;DHT22;5028;50.974;4.968;2023-07-20T09:37:02;22.50;99.90
9975;DHT22;5028;50.974;4.968;2023-07-20T09:39:32;22.80;99.90
9975;DHT22;5028;50.974;4.968;2023-07-20T09:42:01;23.10;99.90
9975;DHT22;5028;50.974;4.968;2023-07-20T09:44:34;23.20;99.90
9975;DHT22;5028;50.974;4.968;2023-07-20T09:47:08;23.30;99.90
9975;DHT22;5028;50.974;4.968;2023-07-20T09:49:39;23.30;99.90
9975;DHT22;5028;50.974;4.968;2023-07-20T09:52:11;23.80;99.90
9975;DHT22;5028;50.974;4.968;2023-07-20T09:55:01;24.30;99.90
9975;DHT22;5028;50.974;4.968;2023-07-20T09:57:32;24.70;99.90
9975;DHT22;5028;50.974;4.968;2023-07-20T10:00:05;24.30;99.90
9975;DHT22;5028;50.974;4.968;2023-07-20T10:02:44;23.80;99.90
9975;DHT22;5028;50.974;4.968;2023-07-20T10:05:14;23.90;99.90
9975;DHT22;5028;50.974;4.968;2023-07-20T10:07:46;24.00;99.90
9975;DHT22;5028;50.974;4.968;2023-07-20T10:10:40;24.20;99.90
9975;DHT22;5028;50.974;4.968;2023-07-20T10:13:15;24.40;99.90
9975;DHT22;5028;50.974;4.968;2023-07-20T10:15:47;24.60;99.90
9975;DHT22;5028;50.974;4.968;2023-07-20T10:18:29;24.70;99.90
9975;DHT22;5028;50.974;4.968;2023-07-20T10:21:01;25.10;99.90
9975;DHT22;5028;50.974;4.968;2023-07-20T10:23:33;25.20;99.90
9975;DHT22;5028;50.974;4.968;2023-07-20T10:26:03;24.30;99.90
9975;DHT22;5028;50.974;4.968;2023-07-20T10:28:33;24.70;99.90
9975;DHT22;5028;50.974;4.968;2023-07-20T10:31:02;25.10;99.90
9975;DHT22;5028;50.974;4.968;2023-07-20T10:33:34;25.40;99.90
9975;DHT22;5028;50.974;4.968;2023-07-20T10:36:06;24.70;99.90
9975;DHT22;5028;50.974;4.968;2023-07-20T10:38:41;23.90;99.90
9975;DHT22;5028;50.974;4.968;2023-07-20T10:41:18;23.90;99.90
9975;DHT22;5028;50.974;4.968;2023-07-20T10:43:48;24.50;99.90
9975;DHT22;5028;50.974;4.968;2023-07-20T10:46:42;25.30;99.90
9975;DHT22;5028;50.974;4.968;2023-07-20T10:49:14;25.70;99.90
9975;DHT22;5028;50.974;4.968;2023-07-20T10:51:44;24.40;99.90
9975;DHT22;5028;50.974;4.968;2023-07-20T10:54:46;24.10;99.90
9975;DHT22;5028;50.974;4.968;2023-07-20T10:57:28;24.70;99.90
9975;DHT22;5028;50.974;4.968;2023-07-20T11:00:08;24.60;99.90
9975;DHT22;5028;50.974;4.968;2023-07-20T11:02:46;25.10;99.90
9975;DHT22;5028;50.974;4.968;2023-07-20T11:05:36;25.70;99.90
9975;DHT22;5028;50.974;4.968;2023-07-20T11:08:10;26.60;99.90
9975;DHT22;5028;50.974;4.968;2023-07-20T11:10:42;27.00;99.90
9975;DHT22;5028;50.974;4.968;2023-07-20T11:13:20;27.20;99.90
9975;DHT22;5028;50.974;4.968;2023-07-20T11:16:02;27.20;99.90
9975;DHT22;5028;50.974;4.968;2023-07-20T11:18:36;27.00;99.90
9975;DHT22;5028;50.974;4.968;2023-07-20T11:21:11;27.00;99.90
9975;DHT22;5028;50.974;4.968;2023-07-20T11:23:39;26.90;99.90
9975;DHT22;5028;50.974;4.968;2023-07-20T11:26:09;26.80;99.90
9975;DHT22;5028;50.974;4.968;2023-07-20T11:28:39;27.00;99.90
9975;DHT22;5028;50.974;4.968;2023-07-20T11:31:08;27.00;99.90
9975;DHT22;5028;50.974;4.968;2023-07-20T11:33:37;26.80;99.90
9975;DHT22;5028;50.974;4.968;2023-07-20T11:36:08;26.20;99.90
9975;DHT22;5028;50.974;4.968;2023-07-20T11:38:42;25.40;99.90
9975;DHT22;5028;50.974;4.968;2023-07-20T11:41:12;25.20;99.90
9975;DHT22;5028;50.974;4.968;2023-07-20T11:43:41;25.40;99.90
9975;DHT22;5028;50.974;4.968;2023-07-20T11:46:10;25.60;99.90
9975;DHT22;5028;50.974;4.968;2023-07-20T11:48:39;25.60;99.90
9975;DHT22;5028;50.974;4.968;2023-07-20T11:51:13;26.00;99.90
9975;DHT22;5028;50.974;4.968;2023-07-20T11:53:45;26.60;99.90
9975;DHT22;5028;50.974;4.968;2023-07-20T11:56:16;27.40;99.90
9975;DHT22;5028;50.974;4.968;2023-07-20T11:58:45;27.80;99.90
9975;DHT22;5028;50.974;4.968;2023-07-20T12:01:14;27.50;99.90
9975;DHT22;5028;50.974;4.968;2023-07-20T12:03:43;26.60;99.90
9975;DHT22;5028;50.974;4.968;2023-07-20T12:06:12;26.10;99.90
9975;DHT22;5028;50.974;4.968;2023-07-20T12:08:43;26.00;99.90
9975;DHT22;5028;50.974;4.968;2023-07-20T12:11:12;25.60;99.90
9975;DHT22;5028;50.974;4.968;2023-07-20T12:13:43;25.30;99.90
9975;DHT22;5028;50.974;4.968;2023-07-20T12:16:14;25.40;99.90
9975;DHT22;5028;50.974;4.968;2023-07-20T12:18:47;25.40;99.90
9975;DHT22;5028;50.974;4.968;2023-07-20T12:21:19;25.40;99.90
9975;DHT22;5028;50.974;4.968;2023-07-20T12:23:49;25.40;99.90
9975;DHT22;5028;50.974;4.968;2023-07-20T12:26:18;25.30;99.90
9975;DHT22;5028;50.974;4.968;2023-07-20T12:28:49;25.40;99.90
9975;DHT22;5028;50.974;4.968;2023-07-20T12:31:18;25.60;99.90
9975;DHT22;5028;50.974;4.968;2023-07-20T12:33:48;25.60;99.90
9975;DHT22;5028;50.974;4.968;2023-07-20T12:36:17;25.90;99.90
9975;DHT22;5028;50.974;4.968;2023-07-20T12:38:46;25.70;99.90
9975;DHT22;5028;50.974;4.968;2023-07-20T12:41:16;26.00;99.90
9975;DHT22;5028;50.974;4.968;2023-07-20T12:43:46;26.60;99.90
9975;DHT22;5028;50.974;4.968;2023-07-20T12:46:15;27.20;99.90
9975;DHT22;5028;50.974;4.968;2023-07-20T12:48:44;27.70;99.90
9975;DHT22;5028;50.974;4.968;2023-07-20T12:51:16;27.90;99.90
9975;DHT22;5028;50.974;4.968;2023-07-20T12:53:44;27.70;99.90
9975;DHT22;5028;50.974;4.968;2023-07-20T12:56:13;27.20;99.90
9975;DHT22;5028;50.974;4.968;2023-07-20T12:58:46;26.80;99.90
9975;DHT22;5028;50.974;4.968;2023-07-20T13:01:17;26.30;99.90
9975;DHT22;5028;50.974;4.968;2023-07-20T13:03:45;25.90;99.90
9975;DHT22;5028;50.974;4.968;2023-07-20T13:06:17;26.00;99.90
9975;DHT22;5028;50.974;4.968;2023-07-20T13:08:49;26.10;99.90
9975;DHT22;5028;50.974;4.968;2023-07-20T13:11:23;26.60;99.90
9975;DHT22;5028;50.974;4.968;2023-07-20T13:13:54;27.00;99.90
9975;DHT22;5028;50.974;4.968;2023-07-20T13:16:23;27.20;99.90
9975;DHT22;5028;50.974;4.968;2023-07-20T13:18:51;27.50;99.90
9975;DHT22;5028;50.974;4.968;2023-07-20T13:21:20;27.70;99.90
9975;DHT22;5028;50.974;4.968;2023-07-20T13:23:52;28.10;99.90
9975;DHT22;5028;50.974;4.968;2023-07-20T13:26:23;28.10;99.90
9975;DHT22;5028;50.974;4.968;2023-07-20T13:28:53;27.60;99.90
9975;DHT22;5028;50.974;4.968;2023-07-20T13:31:22;27.10;99.90
9975;DHT22;5028;50.974;4.968;2023-07-20T13:33:51;27.00;99.90
9975;DHT22;5028;50.974;4.968;2023-07-20T13:36:28;26.00;99.90
9975;DHT22;5028;50.974;4.968;2023-07-20T13:38:56;25.70;99.90
9975;DHT22;5028;50.974;4.968;2023-07-20T13:41:26;25.70;99.90
9975;DHT22;5028;50.974;4.968;2023-07-20T13:43:58;25.60;99.90
9975;DHT22;5028;50.974;4.968;2023-07-20T13:46:26;25.20;99.90
9975;DHT22;5028;50.974;4.968;2023-07-20T13:48:58;25.10;99.90
9975;DHT22;5028;50.974;4.968;2023-07-20T13:51:26;25.10;99.90
9975;DHT22;5028;50.974;4.968;2023-07-20T13:53:57;25.10;99.90
9975;DHT22;5028;50.974;4.968;2023-07-20T13:56:46;25.20;99.90
9975;DHT22;5028;50.974;4.968;2023-07-20T13:59:16;25.10;99.90
9975;DHT22;5028;50.974;4.968;2023-07-20T14:01:45;25.00;99.90
9975;DHT22;5028;50.974;4.968;2023-07-20T14:04:13;25.00;99.90
9975;DHT22;5028;50.974;4.968;2023-07-20T14:06:42;24.70;99.90
9975;DHT22;5028;50.974;4.968;2023-07-20T14:09:12;24.10;99.90
9975;DHT22;5028;50.974;4.968;2023-07-20T14:11:41;24.10;99.90
9975;DHT22;5028;50.974;4.968;2023-07-20T14:14:13;24.10;99.90
9975;DHT22;5028;50.974;4.968;2023-07-20T14:16:43;24.10;99.90
9975;DHT22;5028;50.974;4.968;2023-07-20T14:19:12;24.00;99.90
9975;DHT22;5028;50.974;4.968;2023-07-20T14:21:41;23.90;99.90
9975;DHT22;5028;50.974;4.968;2023-07-20T14:24:09;23.70;99.90
9975;DHT22;5028;50.974;4.968;2023-07-20T14:26:39;23.30;99.90
9975;DHT22;5028;50.974;4.968;2023-07-20T14:29:10;23.30;99.90
9975;DHT22;5028;50.974;4.968;2023-07-20T14:31:38;22.90;99.90
9975;DHT22;5028;50.974;4.968;2023-07-20T14:34:09;23.00;99.90
9975;DHT22;5028;50.974;4.968;2023-07-20T14:36:37;22.70;99.90
9975;DHT22;5028;50.974;4.968;2023-07-20T14:39:08;22.50;99.90
9975;DHT22;5028;50.974;4.968;2023-07-20T14:41:37;22.60;99.90
9975;DHT22;5028;50.974;4.968;2023-07-20T14:44:06;22.40;99.90
9975;DHT22;5028;50.974;4.968;2023-07-20T14:46:34;22.40;99.90
9975;DHT22;5028;50.974;4.968;2023-07-20T14:49:03;22.50;99.90
9975;DHT22;5028;50.974;4.968;2023-07-20T14:51:34;22.50;99.90
9975;DHT22;5028;50.974;4.968;2023-07-20T14:54:05;22.50;99.90
9975;DHT22;5028;50.974;4.968;2023-07-20T14:56:34;22.40;99.90
9975;DHT22;5028;50.974;4.968;2023-07-20T14:59:04;22.40;99.90
9975;DHT22;5028;50.974;4.968;2023-07-20T15:01:33;22.50;99.90
9975;DHT22;5028;50.974;4.968;2023-07-20T15:04:02;22.30;99.90
9975;DHT22;5028;50.974;4.968;2023-07-20T15:06:33;22.40;99.90
9975;DHT22;5028;50.974;4.968;2023-07-20T15:09:02;22.10;99.90
9975;DHT22;5028;50.974;4.968;2023-07-20T15:11:33;22.10;99.90
9975;DHT22;5028;50.974;4.968;2023-07-20T15:14:01;22.00;99.90
9975;DHT22;5028;50.974;4.968;2023-07-20T15:16:30;21.80;99.90
9975;DHT22;5028;50.974;4.968;2023-07-20T15:18:58;21.80;99.90
9975;DHT22;5028;50.974;4.968;2023-07-20T15:21:27;21.70;99.90
9975;DHT22;5028;50.974;4.968;2023-07-20T15:23:58;21.90;99.90
9975;DHT22;5028;50.974;4.968;2023-07-20T15:26:27;21.80;99.90
9975;DHT22;5028;50.974;4.968;2023-07-20T15:28:57;21.90;99.90
9975;DHT22;5028;50.974;4.968;2023-07-20T15:31:26;22.00;99.90
9975;DHT22;5028;50.974;4.968;2023-07-20T15:33:57;22.00;99.90
9975;DHT22;5028;50.974;4.968;2023-07-20T15:36:26;21.90;99.90
9975;DHT22;5028;50.974;4.968;2023-07-20T15:38:54;22.00;99.90
9975;DHT22;5028;50.974;4.968;2023-07-20T15:41:25;22.20;99.90
9975;DHT22;5028;50.974;4.968;2023-07-20T15:43:55;22.20;99.90
9975;DHT22;5028;50.974;4.968;2023-07-20T15:46:45;22.20;99.90
9975;DHT22;5028;50.974;4.968;2023-07-20T15:49:16;22.20;99.90
9975;DHT22;5028;50.974;4.968;2023-07-20T15:51:45;21.90;99.90
9975;DHT22;5028;50.974;4.968;2023-07-20T15:54:14;21.90;99.90
9975;DHT22;5028;50.974;4.968;2023-07-20T15:56:45;22.00;99.90
9975;DHT22;5028;50.974;4.968;2023-07-20T15:59:15;22.10;99.90
9975;DHT22;5028;50.974;4.968;2023-07-20T16:01:44;22.20;99.90
9975;DHT22;5028;50.974;4.968;2023-07-20T16:04:13;22.30;99.90
9975;DHT22;5028;50.974;4.968;2023-07-20T16:06:43;22.30;99.90
9975;DHT22;5028;50.974;4.968;2023-07-20T16:09:11;22.20;99.90
9975;DHT22;5028;50.974;4.968;2023-07-20T16:11:42;22.10;99.90
9975;DHT22;5028;50.974;4.968;2023-07-20T16:14:13;22.00;99.90
9975;DHT22;5028;50.974;4.968;2023-07-20T16:16:42;22.10;99.90
9975;DHT22;5028;50.974;4.968;2023-07-20T16:19:11;22.10;99.90
9975;DHT22;5028;50.974;4.968;2023-07-20T16:21:40;22.10;99.90
9975;DHT22;5028;50.974;4.968;2023-07-20T16:24:08;22.00;99.90